sensor_id;sensor_type;location;lat;lon;timestamp;P1;P2;P0
56688;PMS5003;42565;53.342;-1.534;2023-04-16T00:01:53;27;27;
56688;PMS5003;42565;53.342;-1.534;2023-04-16T00:04:21;29;28;
56688;PMS5003;42565;53.342;-1.534;2023-04-16T00:06:48;27;26;
56688;PMS5003;42565;53.342;-1.534;2023-04-16T00:09:15;30;30;
56688;PMS5003;42565;53.342;-1.534;2023-04-16T00:11:42;25;22;
56688;PMS5003;42565;53.342;-1.534;2023-04-16T00:14:09;24;23;
56688;PMS5003;42565;53.342;-1.534;2023-04-16T00:16:36;25;25;
56688;PMS5003;42565;53.342;-1.534;2023-04-16T00:19:04;30;29;
56688;PMS5003;42565;53.342;-1.534;2023-04-16T00:21:31;21;21;
56688;PMS5003;42565;53.342;-1.534;2023-04-16T00:23:58;21;21;
56688;PMS5003;42565;53.342;-1.534;2023-04-16T00:26:24;26;26;
56688;PMS5003;42565;53.342;-1.534;2023-04-16T00:28:51;27;26;
56688;PMS5003;42565;53.342;-1.534;2023-04-16T00:31:25;30;29;
56688;PMS5003;42565;53.342;-1.534;2023-04-16T00:33:53;31;30;
56688;PMS5003;42565;53.342;-1.534;2023-04-16T00:36:21;29;28;
56688;PMS5003;42565;53.342;-1.534;2023-04-16T00:38:49;37;33;
56688;PMS5003;42565;53.342;-1.534;2023-04-16T00:41:16;33;32;
56688;PMS5003;42565;53.342;-1.534;2023-04-16T00:43:43;33;30;
56688;PMS5003;42565;53.342;-1.534;2023-04-16T00:46:11;32;30;
56688;PMS5003;42565;53.342;-1.534;2023-04-16T00:48:38;38;36;
56688;PMS5003;42565;53.342;-1.534;2023-04-16T00:51:07;34;34;
56688;PMS5003;42565;53.342;-1.534;2023-04-16T00:53:35;36;35;
56688;PMS5003;42565;53.342;-1.534;2023-04-16T00:56:03;37;37;
56688;PMS5003;42565;53.342;-1.534;2023-04-16T00:58:32;38;36;
56688;PMS5003;42565;53.342;-1.534;2023-04-16T01:01:00;37;37;
56688;PMS5003;42565;53.342;-1.534;2023-04-16T01:03:29;41;38;
56688;PMS5003;42565;53.342;-1.534;2023-04-16T01:06:03;34;32;
56688;PMS5003;42565;53.342;-1.534;2023-04-16T01:08:31;41;37;
56688;PMS5003;42565;53.342;-1.534;2023-04-16T01:10:59;31;31;
56688;PMS5003;42565;53.342;-1.534;2023-04-16T01:13:26;34;32;
56688;PMS5003;42565;53.342;-1.534;2023-04-16T01:15:53;31;31;
56688;PMS5003;42565;53.342;-1.534;2023-04-16T01:18:21;37;33;
56688;PMS5003;42565;53.342;-1.534;2023-04-16T01:20:49;32;30;
56688;PMS5003;42565;53.342;-1.534;2023-04-16T01:23:17;35;34;
56688;PMS5003;42565;53.342;-1.534;2023-04-16T01:25:44;32;30;
56688;PMS5003;42565;53.342;-1.534;2023-04-16T01:28:11;33;31;
56688;PMS5003;42565;53.342;-1.534;2023-04-16T01:30:39;32;31;
56688;PMS5003;42565;53.342;-1.534;2023-04-16T01:33:06;33;32;
56688;PMS5003;42565;53.342;-1.534;2023-04-16T01:35:36;31;30;
56688;PMS5003;42565;53.342;-1.534;2023-04-16T01:38:04;40;37;
56688;PMS5003;42565;53.342;-1.534;2023-04-16T01:40:32;35;34;
56688;PMS5003;42565;53.342;-1.534;2023-04-16T01:42:59;36;35;
56688;PMS5003;42565;53.342;-1.534;2023-04-16T01:45:26;38;35;
56688;PMS5003;42565;53.342;-1.534;2023-04-16T01:47:53;34;34;
56688;PMS5003;42565;53.342;-1.534;2023-04-16T01:50:21;30;29;
56688;PMS5003;42565;53.342;-1.534;2023-04-16T01:52:48;35;34;
56688;PMS5003;42565;53.342;-1.534;2023-04-16T01:55:16;38;36;
56688;PMS5003;42565;53.342;-1.534;2023-04-16T01:57:43;34;32;
56688;PMS5003;42565;53.342;-1.534;2023-04-16T02:00:10;35;32;
56688;PMS5003;42565;53.342;-1.534;2023-04-16T02:02:37;38;34;
56688;PMS5003;42565;53.342;-1.534;2023-04-16T02:05:04;33;32;
56688;PMS5003;42565;53.342;-1.534;2023-04-16T02:07:31;34;30;
56688;PMS5003;42565;53.342;-1.534;2023-04-16T02:09:58;31;30;
56688;PMS5003;42565;53.342;-1.534;2023-04-16T02:12:25;31;29;
56688;PMS5003;42565;53.342;-1.534;2023-04-16T02:14:53;34;31;
56688;PMS5003;42565;53.342;-1.534;2023-04-16T02:17:20;33;31;
56688;PMS5003;42565;53.342;-1.534;2023-04-16T02:19:48;27;26;
56688;PMS5003;42565;53.342;-1.534;2023-04-16T02:22:15;32;31;
56688;PMS5003;42565;53.342;-1.534;2023-04-16T02:24:42;30;29;
56688;PMS5003;42565;53.342;-1.534;2023-04-16T02:27:09;35;31;
56688;PMS5003;42565;53.342;-1.534;2023-04-16T02:29:36;34;33;
56688;PMS5003;42565;53.342;-1.534;2023-04-16T02:32:04;31;31;
56688;PMS5003;42565;53.342;-1.534;2023-04-16T02:34:31;35;32;
56688;PMS5003;42565;53.342;-1.534;2023-04-16T02:36:58;36;34;
56688;PMS5003;42565;53.342;-1.534;2023-04-16T02:39:26;36;35;
56688;PMS5003;42565;53.342;-1.534;2023-04-16T02:41:53;39;37;
56688;PMS5003;42565;53.342;-1.534;2023-04-16T02:44:21;31;29;
56688;PMS5003;42565;53.342;-1.534;2023-04-16T02:46:48;31;30;
56688;PMS5003;42565;53.342;-1.534;2023-04-16T02:49:15;30;29;
56688;PMS5003;42565;53.342;-1.534;2023-04-16T02:51:42;32;31;
56688;PMS5003;42565;53.342;-1.534;2023-04-16T02:54:09;29;29;
56688;PMS5003;42565;53.342;-1.534;2023-04-16T02:56:36;29;27;
56688;PMS5003;42565;53.342;-1.534;2023-04-16T02:59:04;29;28;
56688;PMS5003;42565;53.342;-1.534;2023-04-16T03:01:31;28;28;
56688;PMS5003;42565;53.342;-1.534;2023-04-16T03:03:58;30;28;
56688;PMS5003;42565;53.342;-1.534;2023-04-16T03:06:25;30;30;
56688;PMS5003;42565;53.342;-1.534;2023-04-16T03:08:52;27;27;
56688;PMS5003;42565;53.342;-1.534;2023-04-16T03:11:20;27;26;
56688;PMS5003;42565;53.342;-1.534;2023-04-16T03:13:47;28;27;
56688;PMS5003;42565;53.342;-1.534;2023-04-16T03:16:14;34;32;
56688;PMS5003;42565;53.342;-1.534;2023-04-16T03:18:42;28;27;
56688;PMS5003;42565;53.342;-1.534;2023-04-16T03:21:09;36;33;
56688;PMS5003;42565;53.342;-1.534;2023-04-16T03:23:36;30;28;
56688;PMS5003;42565;53.342;-1.534;2023-04-16T03:26:04;34;33;
56688;PMS5003;42565;53.342;-1.534;2023-04-16T03:28:30;29;28;
56688;PMS5003;42565;53.342;-1.534;2023-04-16T03:30:58;33;31;
56688;PMS5003;42565;53.342;-1.534;2023-04-16T03:33:25;36;33;
56688;PMS5003;42565;53.342;-1.534;2023-04-16T03:35:54;39;35;
56688;PMS5003;42565;53.342;-1.534;2023-04-16T03:38:22;35;33;
56688;PMS5003;42565;53.342;-1.534;2023-04-16T03:40:49;30;29;
56688;PMS5003;42565;53.342;-1.534;2023-04-16T03:43:16;35;34;
56688;PMS5003;42565;53.342;-1.534;2023-04-16T03:45:44;35;33;
56688;PMS5003;42565;53.342;-1.534;2023-04-16T03:48:11;34;33;
56688;PMS5003;42565;53.342;-1.534;2023-04-16T03:50:38;31;31;
56688;PMS5003;42565;53.342;-1.534;2023-04-16T03:53:05;38;35;
56688;PMS5003;42565;53.342;-1.534;2023-04-16T03:55:33;32;32;
56688;PMS5003;42565;53.342;-1.534;2023-04-16T03:58:00;34;33;
56688;PMS5003;42565;53.342;-1.534;2023-04-16T04:00:28;36;34;
56688;PMS5003;42565;53.342;-1.534;2023-04-16T04:02:55;35;33;
56688;PMS5003;42565;53.342;-1.534;2023-04-16T04:05:22;36;34;
56688;PMS5003;42565;53.342;-1.534;2023-04-16T04:07:49;39;36;
56688;PMS5003;42565;53.342;-1.534;2023-04-16T04:10:17;33;33;
56688;PMS5003;42565;53.342;-1.534;2023-04-16T04:12:44;33;32;
56688;PMS5003;42565;53.342;-1.534;2023-04-16T04:15:12;34;34;
56688;PMS5003;42565;53.342;-1.534;2023-04-16T04:17:39;39;37;
56688;PMS5003;42565;53.342;-1.534;2023-04-16T04:20:07;39;36;
56688;PMS5003;42565;53.342;-1.534;2023-04-16T04:22:35;33;31;
56688;PMS5003;42565;53.342;-1.534;2023-04-16T04:25:02;36;35;
56688;PMS5003;42565;53.342;-1.534;2023-04-16T04:27:30;36;35;
56688;PMS5003;42565;53.342;-1.534;2023-04-16T04:29:57;34;34;
56688;PMS5003;42565;53.342;-1.534;2023-04-16T04:32:24;30;30;
56688;PMS5003;42565;53.342;-1.534;2023-04-16T04:34:51;31;30;
56688;PMS5003;42565;53.342;-1.534;2023-04-16T04:37:18;33;31;
56688;PMS5003;42565;53.342;-1.534;2023-04-16T04:39:46;35;34;
56688;PMS5003;42565;53.342;-1.534;2023-04-16T04:42:13;36;36;
56688;PMS5003;42565;53.342;-1.534;2023-04-16T04:44:42;33;32;
56688;PMS5003;42565;53.342;-1.534;2023-04-16T04:47:10;37;35;
56688;PMS5003;42565;53.342;-1.534;2023-04-16T04:49:37;31;29;
56688;PMS5003;42565;53.342;-1.534;2023-04-16T04:52:04;34;32;
56688;PMS5003;42565;53.342;-1.534;2023-04-16T04:54:31;37;35;
56688;PMS5003;42565;53.342;-1.534;2023-04-16T04:56:58;32;31;
56688;PMS5003;42565;53.342;-1.534;2023-04-16T04:59:25;27;26;
56688;PMS5003;42565;53.342;-1.534;2023-04-16T05:01:52;32;32;
56688;PMS5003;42565;53.342;-1.534;2023-04-16T05:04:19;33;32;
56688;PMS5003;42565;53.342;-1.534;2023-04-16T05:06:46;34;33;
56688;PMS5003;42565;53.342;-1.534;2023-04-16T05:09:13;32;31;
56688;PMS5003;42565;53.342;-1.534;2023-04-16T05:11:40;32;31;
56688;PMS5003;42565;53.342;-1.534;2023-04-16T05:14:08;30;29;
56688;PMS5003;42565;53.342;-1.534;2023-04-16T05:16:35;28;27;
56688;PMS5003;42565;53.342;-1.534;2023-04-16T05:19:02;24;24;
56688;PMS5003;42565;53.342;-1.534;2023-04-16T05:21:30;26;24;
56688;PMS5003;42565;53.342;-1.534;2023-04-16T05:23:57;28;27;
56688;PMS5003;42565;53.342;-1.534;2023-04-16T05:26:24;31;28;
56688;PMS5003;42565;53.342;-1.534;2023-04-16T05:28:51;30;29;
56688;PMS5003;42565;53.342;-1.534;2023-04-16T05:31:18;25;24;
56688;PMS5003;42565;53.342;-1.534;2023-04-16T05:33:45;23;23;
56688;PMS5003;42565;53.342;-1.534;2023-04-16T05:36:13;31;29;
56688;PMS5003;42565;53.342;-1.534;2023-04-16T05:38:39;21;20;
56688;PMS5003;42565;53.342;-1.534;2023-04-16T05:41:06;19;19;
56688;PMS5003;42565;53.342;-1.534;2023-04-16T05:43:34;23;22;
56688;PMS5003;42565;53.342;-1.534;2023-04-16T05:46:01;22;22;
56688;PMS5003;42565;53.342;-1.534;2023-04-16T05:48:28;23;23;
56688;PMS5003;42565;53.342;-1.534;2023-04-16T05:50:55;22;22;
56688;PMS5003;42565;53.342;-1.534;2023-04-16T05:53:23;21;20;
56688;PMS5003;42565;53.342;-1.534;2023-04-16T05:55:50;23;22;
56688;PMS5003;42565;53.342;-1.534;2023-04-16T05:58:18;22;22;
56688;PMS5003;42565;53.342;-1.534;2023-04-16T06:00:45;20;18;
56688;PMS5003;42565;53.342;-1.534;2023-04-16T06:03:12;17;16;
56688;PMS5003;42565;53.342;-1.534;2023-04-16T06:05:38;20;20;
56688;PMS5003;42565;53.342;-1.534;2023-04-16T06:08:06;15;15;
56688;PMS5003;42565;53.342;-1.534;2023-04-16T06:10:32;18;17;
56688;PMS5003;42565;53.342;-1.534;2023-04-16T06:13:00;17;15;
56688;PMS5003;42565;53.342;-1.534;2023-04-16T06:15:27;15;14;
56688;PMS5003;42565;53.342;-1.534;2023-04-16T06:17:54;18;16;
56688;PMS5003;42565;53.342;-1.534;2023-04-16T06:20:21;10;10;
56688;PMS5003;42565;53.342;-1.534;2023-04-16T06:22:48;8;8;
56688;PMS5003;42565;53.342;-1.534;2023-04-16T06:25:15;9;9;
56688;PMS5003;42565;53.342;-1.534;2023-04-16T06:27:43;10;10;
56688;PMS5003;42565;53.342;-1.534;2023-04-16T06:30:11;8;8;
56688;PMS5003;42565;53.342;-1.534;2023-04-16T06:32:38;8;7;
56688;PMS5003;42565;53.342;-1.534;2023-04-16T06:35:06;8;8;
56688;PMS5003;42565;53.342;-1.534;2023-04-16T06:37:34;6;6;
56688;PMS5003;42565;53.342;-1.534;2023-04-16T06:40:01;9;9;
56688;PMS5003;42565;53.342;-1.534;2023-04-16T06:42:30;8;8;
56688;PMS5003;42565;53.342;-1.534;2023-04-16T06:44:57;7;7;
56688;PMS5003;42565;53.342;-1.534;2023-04-16T06:47:23;7;7;
56688;PMS5003;42565;53.342;-1.534;2023-04-16T06:49:50;9;9;
56688;PMS5003;42565;53.342;-1.534;2023-04-16T06:52:17;8;8;
56688;PMS5003;42565;53.342;-1.534;2023-04-16T06:54:44;8;8;
56688;PMS5003;42565;53.342;-1.534;2023-04-16T06:57:11;7;7;
56688;PMS5003;42565;53.342;-1.534;2023-04-16T06:59:38;9;8;
56688;PMS5003;42565;53.342;-1.534;2023-04-16T07:02:04;6;6;
56688;PMS5003;42565;53.342;-1.534;2023-04-16T07:04:33;10;9;
56688;PMS5003;42565;53.342;-1.534;2023-04-16T07:07:00;8;8;
56688;PMS5003;42565;53.342;-1.534;2023-04-16T07:09:26;5;5;
56688;PMS5003;42565;53.342;-1.534;2023-04-16T07:11:53;5;5;
56688;PMS5003;42565;53.342;-1.534;2023-04-16T07:14:21;5;5;
56688;PMS5003;42565;53.342;-1.534;2023-04-16T07:16:48;8;6;
56688;PMS5003;42565;53.342;-1.534;2023-04-16T07:19:15;4;4;
56688;PMS5003;42565;53.342;-1.534;2023-04-16T07:21:42;4;4;
56688;PMS5003;42565;53.342;-1.534;2023-04-16T07:24:09;4;4;
56688;PMS5003;42565;53.342;-1.534;2023-04-16T07:26:37;5;5;
56688;PMS5003;42565;53.342;-1.534;2023-04-16T07:29:03;6;5;
56688;PMS5003;42565;53.342;-1.534;2023-04-16T07:31:30;6;6;
56688;PMS5003;42565;53.342;-1.534;2023-04-16T07:33:57;5;4;
56688;PMS5003;42565;53.342;-1.534;2023-04-16T07:36:25;4;4;
56688;PMS5003;42565;53.342;-1.534;2023-04-16T07:38:52;5;5;
56688;PMS5003;42565;53.342;-1.534;2023-04-16T07:41:20;4;4;
56688;PMS5003;42565;53.342;-1.534;2023-04-16T07:43:47;4;4;
56688;PMS5003;42565;53.342;-1.534;2023-04-16T07:46:15;5;5;
56688;PMS5003;42565;53.342;-1.534;2023-04-16T07:48:42;5;4;
56688;PMS5003;42565;53.342;-1.534;2023-04-16T07:51:09;4;4;
56688;PMS5003;42565;53.342;-1.534;2023-04-16T07:53:36;4;4;
56688;PMS5003;42565;53.342;-1.534;2023-04-16T07:56:02;5;4;
56688;PMS5003;42565;53.342;-1.534;2023-04-16T07:58:30;3;3;
56688;PMS5003;42565;53.342;-1.534;2023-04-16T08:00:57;3;3;
56688;PMS5003;42565;53.342;-1.534;2023-04-16T08:03:24;3;2;
56688;PMS5003;42565;53.342;-1.534;2023-04-16T08:05:51;3;3;
56688;PMS5003;42565;53.342;-1.534;2023-04-16T08:08:18;4;3;
56688;PMS5003;42565;53.342;-1.534;2023-04-16T08:10:45;1;1;
56688;PMS5003;42565;53.342;-1.534;2023-04-16T08:13:11;1;1;
56688;PMS5003;42565;53.342;-1.534;2023-04-16T08:15:38;2;1;
56688;PMS5003;42565;53.342;-1.534;2023-04-16T08:18:05;1;1;
56688;PMS5003;42565;53.342;-1.534;2023-04-16T08:20:31;1;1;
56688;PMS5003;42565;53.342;-1.534;2023-04-16T08:22:58;2;2;
56688;PMS5003;42565;53.342;-1.534;2023-04-16T08:25:25;2;1;
56688;PMS5003;42565;53.342;-1.534;2023-04-16T08:27:51;2;2;
56688;PMS5003;42565;53.342;-1.534;2023-04-16T08:30:18;2;2;
56688;PMS5003;42565;53.342;-1.534;2023-04-16T08:32:45;1;1;
56688;PMS5003;42565;53.342;-1.534;2023-04-16T08:35:13;2;1;
56688;PMS5003;42565;53.342;-1.534;2023-04-16T08:37:40;1;1;
56688;PMS5003;42565;53.342;-1.534;2023-04-16T08:40:08;1;1;
56688;PMS5003;42565;53.342;-1.534;2023-04-16T08:42:40;1;1;
56688;PMS5003;42565;53.342;-1.534;2023-04-16T08:45:12;2;1;
56688;PMS5003;42565;53.342;-1.534;2023-04-16T08:47:40;0;0;
56688;PMS5003;42565;53.342;-1.534;2023-04-16T08:50:10;1;1;
56688;PMS5003;42565;53.342;-1.534;2023-04-16T08:52:41;0;0;
56688;PMS5003;42565;53.342;-1.534;2023-04-16T08:55:16;0;0;
56688;PMS5003;42565;53.342;-1.534;2023-04-16T08:57:46;0;0;
56688;PMS5003;42565;53.342;-1.534;2023-04-16T09:00:16;1;0;
56688;PMS5003;42565;53.342;-1.534;2023-04-16T09:02:43;0;0;
56688;PMS5003;42565;53.342;-1.534;2023-04-16T09:05:13;1;1;
56688;PMS5003;42565;53.342;-1.534;2023-04-16T09:07:41;0;0;
56688;PMS5003;42565;53.342;-1.534;2023-04-16T09:10:10;0;0;
56688;PMS5003;42565;53.342;-1.534;2023-04-16T09:12:39;0;0;
56688;PMS5003;42565;53.342;-1.534;2023-04-16T09:15:07;1;1;
56688;PMS5003;42565;53.342;-1.534;2023-04-16T09:17:36;1;0;
56688;PMS5003;42565;53.342;-1.534;2023-04-16T09:20:04;1;0;
56688;PMS5003;42565;53.342;-1.534;2023-04-16T09:22:33;1;0;
56688;PMS5003;42565;53.342;-1.534;2023-04-16T09:25:00;0;0;
56688;PMS5003;42565;53.342;-1.534;2023-04-16T09:27:28;0;0;
56688;PMS5003;42565;53.342;-1.534;2023-04-16T09:29:56;0;0;
56688;PMS5003;42565;53.342;-1.534;2023-04-16T09:32:23;0;0;
56688;PMS5003;42565;53.342;-1.534;2023-04-16T09:34:53;1;1;
56688;PMS5003;42565;53.342;-1.534;2023-04-16T09:37:23;0;0;
56688;PMS5003;42565;53.342;-1.534;2023-04-16T09:39:52;2;1;
56688;PMS5003;42565;53.342;-1.534;2023-04-16T09:42:23;0;0;
56688;PMS5003;42565;53.342;-1.534;2023-04-16T09:44:50;1;0;
56688;PMS5003;42565;53.342;-1.534;2023-04-16T09:47:19;1;1;
56688;PMS5003;42565;53.342;-1.534;2023-04-16T09:49:47;0;0;
56688;PMS5003;42565;53.342;-1.534;2023-04-16T09:52:15;0;0;
56688;PMS5003;42565;53.342;-1.534;2023-04-16T09:54:47;0;0;
56688;PMS5003;42565;53.342;-1.534;2023-04-16T09:57:17;0;0;
56688;PMS5003;42565;53.342;-1.534;2023-04-16T09:59:45;0;0;
56688;PMS5003;42565;53.342;-1.534;2023-04-16T10:02:13;0;0;
56688;PMS5003;42565;53.342;-1.534;2023-04-16T10:04:48;0;0;
56688;PMS5003;42565;53.342;-1.534;2023-04-16T10:07:17;0;0;
56688;PMS5003;42565;53.342;-1.534;2023-04-16T10:09:44;2;1;
56688;PMS5003;42565;53.342;-1.534;2023-04-16T10:12:13;1;1;
56688;PMS5003;42565;53.342;-1.534;2023-04-16T10:14:41;0;0;
56688;PMS5003;42565;53.342;-1.534;2023-04-16T10:17:08;1;1;
56688;PMS5003;42565;53.342;-1.534;2023-04-16T10:19:37;1;1;
56688;PMS5003;42565;53.342;-1.534;2023-04-16T10:22:05;1;1;
56688;PMS5003;42565;53.342;-1.534;2023-04-16T10:24:32;1;1;
56688;PMS5003;42565;53.342;-1.534;2023-04-16T10:27:00;1;1;
56688;PMS5003;42565;53.342;-1.534;2023-04-16T10:29:28;1;1;
56688;PMS5003;42565;53.342;-1.534;2023-04-16T10:31:56;1;1;
56688;PMS5003;42565;53.342;-1.534;2023-04-16T10:34:24;2;1;
56688;PMS5003;42565;53.342;-1.534;2023-04-16T10:36:53;1;1;
56688;PMS5003;42565;53.342;-1.534;2023-04-16T10:39:21;1;1;
56688;PMS5003;42565;53.342;-1.534;2023-04-16T10:41:49;1;1;
56688;PMS5003;42565;53.342;-1.534;2023-04-16T10:44:32;2;2;
56688;PMS5003;42565;53.342;-1.534;2023-04-16T10:46:59;1;1;
56688;PMS5003;42565;53.342;-1.534;2023-04-16T10:49:27;0;0;
56688;PMS5003;42565;53.342;-1.534;2023-04-16T10:51:55;3;2;
56688;PMS5003;42565;53.342;-1.534;2023-04-16T10:54:25;0;0;
56688;PMS5003;42565;53.342;-1.534;2023-04-16T10:56:53;1;1;
56688;PMS5003;42565;53.342;-1.534;2023-04-16T10:59:23;1;1;
56688;PMS5003;42565;53.342;-1.534;2023-04-16T11:01:54;1;1;
56688;PMS5003;42565;53.342;-1.534;2023-04-16T11:04:25;1;1;
56688;PMS5003;42565;53.342;-1.534;2023-04-16T11:07:03;2;2;
56688;PMS5003;42565;53.342;-1.534;2023-04-16T11:10:04;3;3;
56688;PMS5003;42565;53.342;-1.534;2023-04-16T11:12:33;2;2;
56688;PMS5003;42565;53.342;-1.534;2023-04-16T11:15:02;2;2;
56688;PMS5003;42565;53.342;-1.534;2023-04-16T11:17:31;2;2;
56688;PMS5003;42565;53.342;-1.534;2023-04-16T11:20:02;1;1;
56688;PMS5003;42565;53.342;-1.534;2023-04-16T11:22:30;1;0;
56688;PMS5003;42565;53.342;-1.534;2023-04-16T11:25:01;1;1;
56688;PMS5003;42565;53.342;-1.534;2023-04-16T11:27:29;2;1;
56688;PMS5003;42565;53.342;-1.534;2023-04-16T11:29:57;0;0;
56688;PMS5003;42565;53.342;-1.534;2023-04-16T11:32:26;1;1;
56688;PMS5003;42565;53.342;-1.534;2023-04-16T11:34:53;1;1;
56688;PMS5003;42565;53.342;-1.534;2023-04-16T11:37:22;2;2;
56688;PMS5003;42565;53.342;-1.534;2023-04-16T11:39:57;2;1;
56688;PMS5003;42565;53.342;-1.534;2023-04-16T11:42:24;2;2;
56688;PMS5003;42565;53.342;-1.534;2023-04-16T11:44:54;1;1;
56688;PMS5003;42565;53.342;-1.534;2023-04-16T11:47:23;3;2;
56688;PMS5003;42565;53.342;-1.534;2023-04-16T11:49:50;2;2;
56688;PMS5003;42565;53.342;-1.534;2023-04-16T11:52:25;1;1;
56688;PMS5003;42565;53.342;-1.534;2023-04-16T11:54:54;1;1;
56688;PMS5003;42565;53.342;-1.534;2023-04-16T11:57:25;2;1;
56688;PMS5003;42565;53.342;-1.534;2023-04-16T11:59:53;2;2;
56688;PMS5003;42565;53.342;-1.534;2023-04-16T12:02:36;1;1;
56688;PMS5003;42565;53.342;-1.534;2023-04-16T12:05:05;2;2;
56688;PMS5003;42565;53.342;-1.534;2023-04-16T12:07:50;2;2;
56688;PMS5003;42565;53.342;-1.534;2023-04-16T12:10:17;2;2;
56688;PMS5003;42565;53.342;-1.534;2023-04-16T12:12:45;2;2;
56688;PMS5003;42565;53.342;-1.534;2023-04-16T12:15:12;2;2;
56688;PMS5003;42565;53.342;-1.534;2023-04-16T12:17:40;2;2;
56688;PMS5003;42565;53.342;-1.534;2023-04-16T12:20:08;1;1;
56688;PMS5003;42565;53.342;-1.534;2023-04-16T12:22:37;1;1;
56688;PMS5003;42565;53.342;-1.534;2023-04-16T12:25:06;2;2;
56688;PMS5003;42565;53.342;-1.534;2023-04-16T12:27:41;2;2;
56688;PMS5003;42565;53.342;-1.534;2023-04-16T12:30:10;2;2;
56688;PMS5003;42565;53.342;-1.534;2023-04-16T12:32:39;2;2;
56688;PMS5003;42565;53.342;-1.534;2023-04-16T12:35:06;2;2;
56688;PMS5003;42565;53.342;-1.534;2023-04-16T12:37:33;2;2;
56688;PMS5003;42565;53.342;-1.534;2023-04-16T12:40:01;3;3;
56688;PMS5003;42565;53.342;-1.534;2023-04-16T12:42:28;4;4;
56688;PMS5003;42565;53.342;-1.534;2023-04-16T12:44:56;1;1;
56688;PMS5003;42565;53.342;-1.534;2023-04-16T12:47:24;2;2;
56688;PMS5003;42565;53.342;-1.534;2023-04-16T12:49:51;3;3;
56688;PMS5003;42565;53.342;-1.534;2023-04-16T12:52:18;3;3;
56688;PMS5003;42565;53.342;-1.534;2023-04-16T12:54:46;3;3;
56688;PMS5003;42565;53.342;-1.534;2023-04-16T12:57:12;3;3;
56688;PMS5003;42565;53.342;-1.534;2023-04-16T12:59:39;2;2;
56688;PMS5003;42565;53.342;-1.534;2023-04-16T13:02:06;3;2;
56688;PMS5003;42565;53.342;-1.534;2023-04-16T13:04:33;1;1;
56688;PMS5003;42565;53.342;-1.534;2023-04-16T13:07:00;2;2;
56688;PMS5003;42565;53.342;-1.534;2023-04-16T13:09:28;3;3;
56688;PMS5003;42565;53.342;-1.534;2023-04-16T13:11:55;3;3;
56688;PMS5003;42565;53.342;-1.534;2023-04-16T13:14:23;4;3;
56688;PMS5003;42565;53.342;-1.534;2023-04-16T13:16:49;4;3;
56688;PMS5003;42565;53.342;-1.534;2023-04-16T13:19:16;3;3;
56688;PMS5003;42565;53.342;-1.534;2023-04-16T13:21:43;3;3;
56688;PMS5003;42565;53.342;-1.534;2023-04-16T13:24:10;3;3;
56688;PMS5003;42565;53.342;-1.534;2023-04-16T13:26:37;5;4;
56688;PMS5003;42565;53.342;-1.534;2023-04-16T13:29:04;5;5;
56688;PMS5003;42565;53.342;-1.534;2023-04-16T13:31:30;5;4;
56688;PMS5003;42565;53.342;-1.534;2023-04-16T13:33:57;4;3;
56688;PMS5003;42565;53.342;-1.534;2023-04-16T13:36:24;4;4;
56688;PMS5003;42565;53.342;-1.534;2023-04-16T13:38:52;4;4;
56688;PMS5003;42565;53.342;-1.534;2023-04-16T13:41:19;4;4;
56688;PMS5003;42565;53.342;-1.534;2023-04-16T13:43:46;4;4;
56688;PMS5003;42565;53.342;-1.534;2023-04-16T13:46:13;4;3;
56688;PMS5003;42565;53.342;-1.534;2023-04-16T13:48:40;6;5;
56688;PMS5003;42565;53.342;-1.534;2023-04-16T13:51:08;7;7;
56688;PMS5003;42565;53.342;-1.534;2023-04-16T13:53:39;5;5;
56688;PMS5003;42565;53.342;-1.534;2023-04-16T13:56:06;5;4;
56688;PMS5003;42565;53.342;-1.534;2023-04-16T13:58:34;7;7;
56688;PMS5003;42565;53.342;-1.534;2023-04-16T14:01:00;6;6;
56688;PMS5003;42565;53.342;-1.534;2023-04-16T14:03:28;5;5;
56688;PMS5003;42565;53.342;-1.534;2023-04-16T14:05:55;6;6;
56688;PMS5003;42565;53.342;-1.534;2023-04-16T14:08:22;7;6;
56688;PMS5003;42565;53.342;-1.534;2023-04-16T14:10:49;8;7;
56688;PMS5003;42565;53.342;-1.534;2023-04-16T14:13:16;10;9;
56688;PMS5003;42565;53.342;-1.534;2023-04-16T14:15:43;7;7;
56688;PMS5003;42565;53.342;-1.534;2023-04-16T14:18:10;7;7;
56688;PMS5003;42565;53.342;-1.534;2023-04-16T14:20:37;6;6;
56688;PMS5003;42565;53.342;-1.534;2023-04-16T14:23:04;7;6;
56688;PMS5003;42565;53.342;-1.534;2023-04-16T14:25:31;6;6;
56688;PMS5003;42565;53.342;-1.534;2023-04-16T14:27:59;8;7;
56688;PMS5003;42565;53.342;-1.534;2023-04-16T14:30:26;7;7;
56688;PMS5003;42565;53.342;-1.534;2023-04-16T14:32:53;7;6;
56688;PMS5003;42565;53.342;-1.534;2023-04-16T14:35:21;6;6;
56688;PMS5003;42565;53.342;-1.534;2023-04-16T14:37:49;6;6;
56688;PMS5003;42565;53.342;-1.534;2023-04-16T14:40:17;7;7;
56688;PMS5003;42565;53.342;-1.534;2023-04-16T14:42:44;7;7;
56688;PMS5003;42565;53.342;-1.534;2023-04-16T14:45:11;6;6;
56688;PMS5003;42565;53.342;-1.534;2023-04-16T14:47:39;7;6;
56688;PMS5003;42565;53.342;-1.534;2023-04-16T14:50:07;6;6;
56688;PMS5003;42565;53.342;-1.534;2023-04-16T14:52:35;5;5;
56688;PMS5003;42565;53.342;-1.534;2023-04-16T14:55:02;7;7;
56688;PMS5003;42565;53.342;-1.534;2023-04-16T14:57:31;6;5;
56688;PMS5003;42565;53.342;-1.534;2023-04-16T14:59:57;6;5;
56688;PMS5003;42565;53.342;-1.534;2023-04-16T15:02:25;6;5;
56688;PMS5003;42565;53.342;-1.534;2023-04-16T15:04:53;5;5;
56688;PMS5003;42565;53.342;-1.534;2023-04-16T15:07:20;8;5;
56688;PMS5003;42565;53.342;-1.534;2023-04-16T15:09:47;6;5;
56688;PMS5003;42565;53.342;-1.534;2023-04-16T15:12:13;5;5;
56688;PMS5003;42565;53.342;-1.534;2023-04-16T15:14:40;6;6;
56688;PMS5003;42565;53.342;-1.534;2023-04-16T15:17:08;6;6;
56688;PMS5003;42565;53.342;-1.534;2023-04-16T15:19:35;6;6;
56688;PMS5003;42565;53.342;-1.534;2023-04-16T15:22:02;6;5;
56688;PMS5003;42565;53.342;-1.534;2023-04-16T15:24:29;6;6;
56688;PMS5003;42565;53.342;-1.534;2023-04-16T15:26:56;4;4;
56688;PMS5003;42565;53.342;-1.534;2023-04-16T15:29:23;5;5;
56688;PMS5003;42565;53.342;-1.534;2023-04-16T15:31:50;5;5;
56688;PMS5003;42565;53.342;-1.534;2023-04-16T15:34:17;5;4;
56688;PMS5003;42565;53.342;-1.534;2023-04-16T15:36:44;4;4;
56688;PMS5003;42565;53.342;-1.534;2023-04-16T15:39:11;5;5;
56688;PMS5003;42565;53.342;-1.534;2023-04-16T15:41:38;5;5;
56688;PMS5003;42565;53.342;-1.534;2023-04-16T15:44:05;6;5;
56688;PMS5003;42565;53.342;-1.534;2023-04-16T15:46:32;5;5;
56688;PMS5003;42565;53.342;-1.534;2023-04-16T15:48:59;7;5;
56688;PMS5003;42565;53.342;-1.534;2023-04-16T15:51:26;5;5;
56688;PMS5003;42565;53.342;-1.534;2023-04-16T15:53:54;6;5;
56688;PMS5003;42565;53.342;-1.534;2023-04-16T15:56:21;6;5;
56688;PMS5003;42565;53.342;-1.534;2023-04-16T15:58:49;4;4;
56688;PMS5003;42565;53.342;-1.534;2023-04-16T16:01:16;4;4;
56688;PMS5003;42565;53.342;-1.534;2023-04-16T16:03:44;5;4;
56688;PMS5003;42565;53.342;-1.534;2023-04-16T16:06:12;4;4;
56688;PMS5003;42565;53.342;-1.534;2023-04-16T16:08:40;5;5;
56688;PMS5003;42565;53.342;-1.534;2023-04-16T16:11:08;6;5;
56688;PMS5003;42565;53.342;-1.534;2023-04-16T16:13:35;3;3;
56688;PMS5003;42565;53.342;-1.534;2023-04-16T16:16:03;4;4;
56688;PMS5003;42565;53.342;-1.534;2023-04-16T16:18:30;6;5;
56688;PMS5003;42565;53.342;-1.534;2023-04-16T16:20:58;5;4;
56688;PMS5003;42565;53.342;-1.534;2023-04-16T16:23:25;6;6;
56688;PMS5003;42565;53.342;-1.534;2023-04-16T16:25:53;5;5;